sensor_id;sensor_type;location;lat;lon;timestamp;pressure;altitude;pressure_sealevel;temperature;humidity
9893;BME280;4985;49.092;8.542;2023-03-22T00:01:57;99180.97;;;17.31;52.52
9893;BME280;4985;49.092;8.542;2023-03-22T00:04:24;99180.16;;;17.30;52.52
9893;BME280;4985;49.092;8.542;2023-03-22T00:06:51;99179.34;;;17.30;52.53
9893;BME280;4985;49.092;8.542;2023-03-22T00:09:17;99169.94;;;17.27;52.51
9893;BME280;4985;49.092;8.542;2023-03-22T00:11:45;99170.53;;;17.29;52.52
9893;BME280;4985;49.092;8.542;2023-03-22T00:14:15;99167.88;;;17.29;52.52
9893;BME280;4985;49.092;8.542;2023-03-22T00:16:41;99169.72;;;17.29;52.52
9893;BME280;4985;49.092;8.542;2023-03-22T00:19:10;99162.56;;;17.29;52.52
9893;BME280;4985;49.092;8.542;2023-03-22T00:21:36;99161.75;;;17.29;52.51
9893;BME280;4985;49.092;8.542;2023-03-22T00:24:03;99167.88;;;17.29;52.51
9893;BME280;4985;49.092;8.542;2023-03-22T00:26:30;99160.94;;;17.28;52.52
9893;BME280;4985;49.092;8.542;2023-03-22T00:28:58;99167.06;;;17.29;52.51
9893;BME280;4985;49.092;8.542;2023-03-22T00:31:25;99160.94;;;17.28;52.50
9893;BME280;4985;49.092;8.542;2023-03-22T00:33:51;99160.94;;;17.28;52.51
9893;BME280;4985;49.092;8.542;2023-03-22T00:36:18;99153.97;;;17.27;52.49
9893;BME280;4985;49.092;8.542;2023-03-22T00:38:44;99151.31;;;17.27;52.50
9893;BME280;4985;49.092;8.542;2023-03-22T00:41:12;99144.16;;;17.28;52.51
9893;BME280;4985;49.092;8.542;2023-03-22T00:43:41;99144.16;;;17.28;52.50
9893;BME280;4985;49.092;8.542;2023-03-22T00:46:09;99138.03;;;17.27;52.51
9893;BME280;4985;49.092;8.542;2023-03-22T00:48:36;99136.81;;;17.23;52.50
9893;BME280;4985;49.092;8.542;2023-03-22T00:51:03;99136.38;;;17.26;52.49
9893;BME280;4985;49.092;8.542;2023-03-22T00:53:30;99136.38;;;17.26;52.49
9893;BME280;4985;49.092;8.542;2023-03-22T00:55:57;99128.41;;;17.26;52.49
9893;BME280;4985;49.092;8.542;2023-03-22T00:58:23;99130.25;;;17.26;52.48
9893;BME280;4985;49.092;8.542;2023-03-22T01:00:50;99129.44;;;17.25;52.48
9893;BME280;4985;49.092;8.542;2023-03-22T01:03:18;99127.81;;;17.24;52.48
9893;BME280;4985;49.092;8.542;2023-03-22T01:05:46;99123.31;;;17.25;52.47
9893;BME280;4985;49.092;8.542;2023-03-22T01:08:13;99115.53;;;17.23;52.49
9893;BME280;4985;49.092;8.542;2023-03-22T01:10:42;99113.47;;;17.25;52.49
9893;BME280;4985;49.092;8.542;2023-03-22T01:13:09;99101.22;;;17.24;52.49
9893;BME280;4985;49.092;8.542;2023-03-22T01:15:37;99111.03;;;17.24;52.50
9893;BME280;4985;49.092;8.542;2023-03-22T01:18:03;99094.06;;;17.18;52.51
9893;BME280;4985;49.092;8.542;2023-03-22T01:20:33;99098.75;;;17.23;52.52
9893;BME280;4985;49.092;8.542;2023-03-22T01:23:00;99101.41;;;17.23;52.52
9893;BME280;4985;49.092;8.542;2023-03-22T01:25:26;99094.25;;;17.23;52.51
9893;BME280;4985;49.092;8.542;2023-03-22T01:27:53;99097.94;;;17.22;52.51
9893;BME280;4985;49.092;8.542;2023-03-22T01:30:20;99092.63;;;17.22;52.50
9893;BME280;4985;49.092;8.542;2023-03-22T01:32:46;99092.63;;;17.22;52.52
9893;BME280;4985;49.092;8.542;2023-03-22T01:35:13;99085.66;;;17.21;52.51
9893;BME280;4985;49.092;8.542;2023-03-22T01:37:41;99087.31;;;17.22;52.51
9893;BME280;4985;49.092;8.542;2023-03-22T01:40:09;99086.66;;;17.20;52.52
9893;BME280;4985;49.092;8.542;2023-03-22T01:42:37;99084.81;;;17.21;52.52
9893;BME280;4985;49.092;8.542;2023-03-22T01:45:32;99085.66;;;17.21;52.52
9893;BME280;4985;49.092;8.542;2023-03-22T01:48:01;99084.00;;;17.20;52.52
9893;BME280;4985;49.092;8.542;2023-03-22T01:50:29;99089.34;;;17.20;52.52
9893;BME280;4985;49.092;8.542;2023-03-22T01:52:59;99076.03;;;17.20;52.51
9893;BME280;4985;49.092;8.542;2023-03-22T01:55:29;99080.53;;;17.20;52.50
9893;BME280;4985;49.092;8.542;2023-03-22T01:57:57;99077.06;;;17.19;52.50
9893;BME280;4985;49.092;8.542;2023-03-22T02:00:25;99075.44;;;17.18;52.51
9893;BME280;4985;49.092;8.542;2023-03-22T02:02:52;99070.94;;;17.18;52.50
9893;BME280;4985;49.092;8.542;2023-03-22T02:05:19;99075.44;;;17.18;52.52
9893;BME280;4985;49.092;8.542;2023-03-22T02:07:47;99069.31;;;17.17;52.53
9893;BME280;4985;49.092;8.542;2023-03-22T02:10:19;99067.06;;;17.14;52.52
9893;BME280;4985;49.092;8.542;2023-03-22T02:12:55;99072.19;;;17.16;52.54
9893;BME280;4985;49.092;8.542;2023-03-22T02:15:27;99072.19;;;17.16;52.54
9893;BME280;4985;49.092;8.542;2023-03-22T02:18:14;99070.97;;;17.12;52.54
9893;BME280;4985;49.092;8.542;2023-03-22T02:20:57;99069.50;;;17.16;52.54
9893;BME280;4985;49.092;8.542;2023-03-22T02:24:05;99070.53;;;17.15;52.54
9893;BME280;4985;49.092;8.542;2023-03-22T02:29:36;99071.34;;;17.15;52.54
9893;BME280;4985;49.092;8.542;2023-03-22T02:32:28;99067.06;;;17.14;52.54
9893;BME280;4985;49.092;8.542;2023-03-22T02:35:20;99066.03;;;17.15;52.53
9893;BME280;4985;49.092;8.542;2023-03-22T02:41:06;99061.97;;;17.13;52.54
9893;BME280;4985;49.092;8.542;2023-03-22T02:43:37;99064.63;;;17.13;52.55
9893;BME280;4985;49.092;8.542;2023-03-22T02:46:14;99067.28;;;17.13;52.54
9893;BME280;4985;49.092;8.542;2023-03-22T02:48:48;99059.69;;;17.10;52.54
9893;BME280;4985;49.092;8.542;2023-03-22T02:51:20;99066.47;;;17.12;52.55
9893;BME280;4985;49.092;8.542;2023-03-22T02:53:52;99062.19;;;17.11;52.55
9893;BME280;4985;49.092;8.542;2023-03-22T02:56:24;99064.84;;;17.11;52.56
9893;BME280;4985;49.092;8.542;2023-03-22T02:58:54;99070.16;;;17.11;52.55
9893;BME280;4985;49.092;8.542;2023-03-22T03:01:24;99057.47;;;17.07;52.55
9893;BME280;4985;49.092;8.542;2023-03-22T03:03:56;99062.38;;;17.10;52.56
9893;BME280;4985;49.092;8.542;2023-03-22T03:06:26;99062.38;;;17.10;52.57
9893;BME280;4985;49.092;8.542;2023-03-22T03:08:56;99070.34;;;17.10;52.56
9893;BME280;4985;49.092;8.542;2023-03-22T03:11:28;99066.88;;;17.09;52.57
9893;BME280;4985;49.092;8.542;2023-03-22T03:13:55;99063.59;;;17.07;52.58
9893;BME280;4985;49.092;8.542;2023-03-22T03:16:25;99059.91;;;17.08;52.56
9893;BME280;4985;49.092;8.542;2023-03-22T03:18:57;99060.72;;;17.09;52.56
9893;BME280;4985;49.092;8.542;2023-03-22T03:21:30;99055.63;;;17.07;52.56
9893;BME280;4985;49.092;8.542;2023-03-22T03:24:05;99054.81;;;17.07;52.57
9893;BME280;4985;49.092;8.542;2023-03-22T03:26:43;99040.31;;;17.03;52.57
9893;BME280;4985;49.092;8.542;2023-03-22T03:29:18;99044.59;;;17.04;52.56
9893;BME280;4985;49.092;8.542;2023-03-22T03:31:52;99049.50;;;17.07;52.57
9893;BME280;4985;49.092;8.542;2023-03-22T03:34:24;99047.66;;;17.07;52.57
9893;BME280;4985;49.092;8.542;2023-03-22T03:36:56;99045.19;;;17.06;52.58
9893;BME280;4985;49.092;8.542;2023-03-22T03:39:27;99048.91;;;17.05;52.59
9893;BME280;4985;49.092;8.542;2023-03-22T03:41:58;99047.25;;;17.04;52.58
9893;BME280;4985;49.092;8.542;2023-03-22T03:44:26;99035.59;;;17.05;52.59
9893;BME280;4985;49.092;8.542;2023-03-22T03:46:54;99043.56;;;17.05;52.60
9893;BME280;4985;49.092;8.542;2023-03-22T03:49:22;99041.94;;;17.04;52.60
9893;BME280;4985;49.092;8.542;2023-03-22T03:51:51;99034.63;;;16.99;52.60
9893;BME280;4985;49.092;8.542;2023-03-22T03:54:18;99038.69;;;17.02;52.62
9893;BME280;4985;49.092;8.542;2023-03-22T03:56:45;99042.16;;;17.02;52.61
9893;BME280;4985;49.092;8.542;2023-03-22T03:59:14;99045.63;;;17.03;52.61
9893;BME280;4985;49.092;8.542;2023-03-22T04:01:41;99043.19;;;17.01;52.61
9893;BME280;4985;49.092;8.542;2023-03-22T04:04:15;99036.03;;;17.02;52.62
9893;BME280;4985;49.092;8.542;2023-03-22T04:06:42;99031.75;;;17.01;52.62
9893;BME280;4985;49.092;8.542;2023-03-22T04:09:09;99037.88;;;17.01;52.62
9893;BME280;4985;49.092;8.542;2023-03-22T04:11:36;99034.41;;;17.01;52.62
9893;BME280;4985;49.092;8.542;2023-03-22T04:14:02;99022.53;;;16.97;52.62
9893;BME280;4985;49.092;8.542;2023-03-22T04:16:30;99023.75;;;17.01;52.61
9893;BME280;4985;49.092;8.542;2023-03-22T04:18:57;99024.78;;;17.00;52.62
9893;BME280;4985;49.092;8.542;2023-03-22T04:21:23;99030.09;;;17.00;52.61
9893;BME280;4985;49.092;8.542;2023-03-22T04:23:50;99029.28;;;16.99;52.62
9893;BME280;4985;49.092;8.542;2023-03-22T04:26:17;99028.44;;;16.99;52.64
9893;BME280;4985;49.092;8.542;2023-03-22T04:28:44;99039.09;;;16.99;52.64
9893;BME280;4985;49.092;8.542;2023-03-22T04:31:10;99032.94;;;16.98;52.65
9893;BME280;4985;49.092;8.542;2023-03-22T04:33:38;99027.63;;;16.98;52.64
9893;BME280;4985;49.092;8.542;2023-03-22T04:36:06;99026.81;;;16.98;52.63
9893;BME280;4985;49.092;8.542;2023-03-22T04:38:35;99022.31;;;16.98;52.63
9893;BME280;4985;49.092;8.542;2023-03-22T04:41:04;99018.84;;;16.98;52.63
9893;BME280;4985;49.092;8.542;2023-03-22T04:43:31;99016.19;;;16.98;52.63
9893;BME280;4985;49.092;8.542;2023-03-22T04:45:59;99006.56;;;16.97;52.62
9893;BME280;4985;49.092;8.542;2023-03-22T04:48:26;99011.09;;;16.96;52.62
9893;BME280;4985;49.092;8.542;2023-03-22T04:50:55;99011.09;;;16.96;52.63
9893;BME280;4985;49.092;8.542;2023-03-22T04:53:22;99007.59;;;16.96;52.63
9893;BME280;4985;49.092;8.542;2023-03-22T04:55:52;99012.94;;;16.96;52.62
9893;BME280;4985;49.092;8.542;2023-03-22T04:58:21;99000.66;;;16.95;52.62
9893;BME280;4985;49.092;8.542;2023-03-22T05:00:47;99002.28;;;16.96;52.61
9893;BME280;4985;49.092;8.542;2023-03-22T05:03:17;98998.00;;;16.95;52.61
9893;BME280;4985;49.092;8.542;2023-03-22T05:05:49;98997.19;;;16.94;52.62
9893;BME280;4985;49.092;8.542;2023-03-22T05:08:18;99000.66;;;16.95;52.62
9893;BME280;4985;49.092;8.542;2023-03-22T05:10:44;99001.69;;;16.94;52.62
9893;BME280;4985;49.092;8.542;2023-03-22T05:13:11;98999.03;;;16.94;52.62
9893;BME280;4985;49.092;8.542;2023-03-22T05:15:38;99001.69;;;16.94;52.63
9893;BME280;4985;49.092;8.542;2023-03-22T05:18:05;99004.34;;;16.94;52.62
9893;BME280;4985;49.092;8.542;2023-03-22T05:20:32;99012.53;;;16.92;52.63
9893;BME280;4985;49.092;8.542;2023-03-22T05:22:58;99013.34;;;16.93;52.63
9893;BME280;4985;49.092;8.542;2023-03-22T05:25:28;99016.00;;;16.93;52.63
9893;BME280;4985;49.092;8.542;2023-03-22T05:27:55;99014.38;;;16.92;52.63
9893;BME280;4985;49.092;8.542;2023-03-22T05:30:26;99019.69;;;16.92;52.63
9893;BME280;4985;49.092;8.542;2023-03-22T05:32:56;99016.22;;;16.91;52.64
9893;BME280;4985;49.092;8.542;2023-03-22T05:35:24;99014.00;;;16.88;52.62
9893;BME280;4985;49.092;8.542;2023-03-22T05:37:50;99016.22;;;16.91;52.64
9893;BME280;4985;49.092;8.542;2023-03-22T05:40:17;99020.72;;;16.91;52.63
9893;BME280;4985;49.092;8.542;2023-03-22T05:42:45;99015.41;;;16.91;52.65
9893;BME280;4985;49.092;8.542;2023-03-22T05:45:12;99019.09;;;16.90;52.64
9893;BME280;4985;49.092;8.542;2023-03-22T05:47:39;99031.38;;;16.91;52.63
9893;BME280;4985;49.092;8.542;2023-03-22T05:50:08;99024.81;;;16.86;52.63
9893;BME280;4985;49.092;8.542;2023-03-22T05:52:35;99028.91;;;16.89;52.66
9893;BME280;4985;49.092;8.542;2023-03-22T05:55:02;99028.09;;;16.88;52.65
9893;BME280;4985;49.092;8.542;2023-03-22T05:57:28;99035.25;;;16.88;52.65
9893;BME280;4985;49.092;8.542;2023-03-22T05:59:57;99033.44;;;16.88;52.64
9893;BME280;4985;49.092;8.542;2023-03-22T06:02:23;99031.78;;;16.87;52.65
9893;BME280;4985;49.092;8.542;2023-03-22T06:04:50;99030.12;;;16.86;52.64
9893;BME280;4985;49.092;8.542;2023-03-22T06:07:17;99024.81;;;16.86;52.65
9893;BME280;4985;49.092;8.542;2023-03-22T06:09:44;99025.63;;;16.87;52.65
9893;BME280;4985;49.092;8.542;2023-03-22T06:12:10;99030.12;;;16.86;52.65
9893;BME280;4985;49.092;8.542;2023-03-22T06:14:37;99028.28;;;16.87;52.65
9893;BME280;4985;49.092;8.542;2023-03-22T06:17:05;99018.69;;;16.86;52.65
9893;BME280;4985;49.092;8.542;2023-03-22T06:19:32;99022.16;;;16.86;52.65
9893;BME280;4985;49.092;8.542;2023-03-22T06:21:59;99022.16;;;16.86;52.66
9893;BME280;4985;49.092;8.542;2023-03-22T06:24:25;99024.00;;;16.86;52.65
9893;BME280;4985;49.092;8.542;2023-03-22T06:26:52;99030.12;;;16.86;52.64
9893;BME280;4985;49.092;8.542;2023-03-22T06:29:18;99032.19;;;16.84;52.64
9893;BME280;4985;49.092;8.542;2023-03-22T06:31:45;99034.84;;;16.84;52.66
9893;BME280;4985;49.092;8.542;2023-03-22T06:34:13;99037.50;;;16.84;52.66
9893;BME280;4985;49.092;8.542;2023-03-22T06:36:40;99043.84;;;16.83;52.68
9893;BME280;4985;49.092;8.542;2023-03-22T06:39:06;99037.72;;;16.83;52.69
9893;BME280;4985;49.092;8.542;2023-03-22T06:41:33;99031.59;;;16.82;52.70
9893;BME280;4985;49.092;8.542;2023-03-22T06:44:00;99036.91;;;16.82;52.71
9893;BME280;4985;49.092;8.542;2023-03-22T06:46:27;99041.41;;;16.82;52.71
9893;BME280;4985;49.092;8.542;2023-03-22T06:48:53;99034.47;;;16.81;52.72
9893;BME280;4985;49.092;8.542;2023-03-22T06:51:21;99035.50;;;16.80;52.74
9893;BME280;4985;49.092;8.542;2023-03-22T06:53:48;99028.31;;;16.80;52.74
9893;BME280;4985;49.092;8.542;2023-03-22T06:56:14;99029.34;;;16.79;52.75
9893;BME280;4985;49.092;8.542;2023-03-22T06:58:41;99037.34;;;16.79;52.75
9893;BME280;4985;49.092;8.542;2023-03-22T07:01:07;99028.53;;;16.79;52.77
9893;BME280;4985;49.092;8.542;2023-03-22T07:03:34;99033.03;;;16.78;52.78
9893;BME280;4985;49.092;8.542;2023-03-22T07:06:01;99040.00;;;16.79;52.77
9893;BME280;4985;49.092;8.542;2023-03-22T07:08:29;99033.03;;;16.78;52.77
9893;BME280;4985;49.092;8.542;2023-03-22T07:10:56;99040.81;;;16.80;52.75
9893;BME280;4985;49.092;8.542;2023-03-22T07:13:22;99026.69;;;16.79;52.75
9893;BME280;4985;49.092;8.542;2023-03-22T07:15:49;99040.00;;;16.79;52.75
9893;BME280;4985;49.092;8.542;2023-03-22T07:18:20;99045.31;;;16.79;52.75
9893;BME280;4985;49.092;8.542;2023-03-22T07:20:46;99045.31;;;16.79;52.76
9893;BME280;4985;49.092;8.542;2023-03-22T07:23:13;99039.38;;;16.77;52.78
9893;BME280;4985;49.092;8.542;2023-03-22T07:25:41;99043.88;;;16.77;52.80
9893;BME280;4985;49.092;8.542;2023-03-22T07:28:07;99048.37;;;16.76;52.82
9893;BME280;4985;49.092;8.542;2023-03-22T07:30:35;99046.72;;;16.75;52.83
9893;BME280;4985;49.092;8.542;2023-03-22T07:33:02;99038.75;;;16.75;52.84
9893;BME280;4985;49.092;8.542;2023-03-22T07:35:29;99051.22;;;16.75;52.86
9893;BME280;4985;49.092;8.542;2023-03-22T07:37:55;99035.91;;;16.70;52.88
9893;BME280;4985;49.092;8.542;2023-03-22T07:40:22;99046.34;;;16.72;52.90
9893;BME280;4985;49.092;8.542;2023-03-22T07:42:50;99047.16;;;16.72;52.90
9893;BME280;4985;49.092;8.542;2023-03-22T07:45:18;99043.69;;;16.72;52.92
9893;BME280;4985;49.092;8.542;2023-03-22T07:47:45;99048.19;;;16.71;52.93
9893;BME280;4985;49.092;8.542;2023-03-22T07:50:12;99053.50;;;16.71;52.94
9893;BME280;4985;49.092;8.542;2023-03-22T07:52:40;99056.37;;;16.70;52.95
9893;BME280;4985;49.092;8.542;2023-03-22T07:55:08;99046.56;;;16.70;52.97
9893;BME280;4985;49.092;8.542;2023-03-22T07:57:35;99045.94;;;16.68;52.98
9893;BME280;4985;49.092;8.542;2023-03-22T08:00:05;99059.25;;;16.68;53.01
9893;BME280;4985;49.092;8.542;2023-03-22T08:02:32;99046.94;;;16.67;53.02
9893;BME280;4985;49.092;8.542;2023-03-22T08:04:59;99063.75;;;16.68;53.03
9893;BME280;4985;49.092;8.542;2023-03-22T08:07:25;99058.41;;;16.68;53.04
9893;BME280;4985;49.092;8.542;2023-03-22T08:09:54;99067.22;;;16.68;53.05
9893;BME280;4985;49.092;8.542;2023-03-22T08:12:21;99056.75;;;16.67;53.06
9893;BME280;4985;49.092;8.542;2023-03-22T08:14:47;99062.06;;;16.67;53.06
9893;BME280;4985;49.092;8.542;2023-03-22T08:17:17;99064.72;;;16.67;53.06
9893;BME280;4985;49.092;8.542;2023-03-22T08:19:43;99056.75;;;16.67;53.06
9893;BME280;4985;49.092;8.542;2023-03-22T08:22:10;99057.56;;;16.67;53.06
9893;BME280;4985;49.092;8.542;2023-03-22T08:24:37;99055.94;;;16.66;53.08
9893;BME280;4985;49.092;8.542;2023-03-22T08:27:04;99050.63;;;16.66;53.09
9893;BME280;4985;49.092;8.542;2023-03-22T08:29:30;99050.63;;;16.66;53.10
9893;BME280;4985;49.092;8.542;2023-03-22T08:31:57;99056.97;;;16.65;53.08
9893;BME280;4985;49.092;8.542;2023-03-22T08:34:27;99054.31;;;16.65;53.11
9893;BME280;4985;49.092;8.542;2023-03-22T08:36:55;99056.34;;;16.63;53.13
9893;BME280;4985;49.092;8.542;2023-03-22T08:39:22;99051.44;;;16.60;53.14
9893;BME280;4985;49.092;8.542;2023-03-22T08:41:48;99051.03;;;16.63;53.16
9893;BME280;4985;49.092;8.542;2023-03-22T08:44:15;99040.19;;;16.65;53.17
9893;BME280;4985;49.092;8.542;2023-03-22T08:46:41;99041.41;;;16.62;53.17
9893;BME280;4985;49.092;8.542;2023-03-22T08:49:08;99048.56;;;16.62;53.20
9893;BME280;4985;49.092;8.542;2023-03-22T08:51:36;99044.28;;;16.60;53.23
9893;BME280;4985;49.092;8.542;2023-03-22T08:54:04;99035.50;;;16.60;53.25
9893;BME280;4985;49.092;8.542;2023-03-22T08:56:31;99038.16;;;16.60;53.26
9893;BME280;4985;49.092;8.542;2023-03-22T08:59:01;99030.19;;;16.60;53.27
9893;BME280;4985;49.092;8.542;2023-03-22T09:01:28;99031.00;;;16.60;53.28
9893;BME280;4985;49.092;8.542;2023-03-22T09:03:55;99036.53;;;16.59;53.29
9893;BME280;4985;49.092;8.542;2023-03-22T09:06:21;99035.50;;;16.60;53.29
9893;BME280;4985;49.092;8.542;2023-03-22T09:08:51;99028.34;;;16.60;53.29
9893;BME280;4985;49.092;8.542;2023-03-22T09:11:19;99024.06;;;16.59;53.29
9893;BME280;4985;49.092;8.542;2023-03-22T09:13:46;99009.56;;;16.55;53.33
9893;BME280;4985;49.092;8.542;2023-03-22T09:16:13;99009.34;;;16.57;53.38
9893;BME280;4985;49.092;8.542;2023-03-22T09:18:41;99014.66;;;16.57;53.42
9893;BME280;4985;49.092;8.542;2023-03-22T09:21:08;99008.31;;;16.58;53.44
9893;BME280;4985;49.092;8.542;2023-03-22T09:23:35;99013.62;;;16.58;53.46
9893;BME280;4985;49.092;8.542;2023-03-22T09:26:05;99004.84;;;16.57;53.49
9893;BME280;4985;49.092;8.542;2023-03-22T09:28:32;99001.38;;;16.57;53.50
9893;BME280;4985;49.092;8.542;2023-03-22T09:31:00;99002.19;;;16.57;53.51
9893;BME280;4985;49.092;8.542;2023-03-22T09:33:27;99017.31;;;16.57;53.52
9893;BME280;4985;49.092;8.542;2023-03-22T09:35:54;99004.03;;;16.57;53.53
9893;BME280;4985;49.092;8.542;2023-03-22T09:38:21;99009.34;;;16.57;53.55
9893;BME280;4985;49.092;8.542;2023-03-22T09:40:51;98995.47;;;16.55;53.57
9893;BME280;4985;49.092;8.542;2023-03-22T09:43:27;99002.63;;;16.54;53.59
9893;BME280;4985;49.092;8.542;2023-03-22T09:45:55;99004.25;;;16.55;53.59
9893;BME280;4985;49.092;8.542;2023-03-22T09:48:27;99000.78;;;16.55;53.60
9893;BME280;4985;49.092;8.542;2023-03-22T09:50:56;98997.09;;;16.56;53.59
9893;BME280;4985;49.092;8.542;2023-03-22T09:53:26;98991.78;;;16.56;53.61
9893;BME280;4985;49.092;8.542;2023-03-22T09:55:56;98980.34;;;16.55;53.62
9893;BME280;4985;49.092;8.542;2023-03-22T09:58:32;98981.97;;;16.56;53.63
9893;BME280;4985;49.092;8.542;2023-03-22T10:01:05;98984.63;;;16.56;53.63
9893;BME280;4985;49.092;8.542;2023-03-22T10:04:06;98976.44;;;16.58;53.64
9893;BME280;4985;49.092;8.542;2023-03-22T10:06:37;98977.47;;;16.57;53.64
9893;BME280;4985;49.092;8.542;2023-03-22T10:09:08;98987.87;;;16.58;53.63
9893;BME280;4985;49.092;8.542;2023-03-22T10:11:41;98975.41;;;16.59;53.64
9893;BME280;4985;49.092;8.542;2023-03-22T10:14:26;98977.03;;;16.60;53.63
9893;BME280;4985;49.092;8.542;2023-03-22T10:16:55;98977.03;;;16.60;53.63
9893;BME280;4985;49.092;8.542;2023-03-22T10:19:26;98975.41;;;16.59;53.64
9893;BME280;4985;49.092;8.542;2023-03-22T10:21:57;98968.03;;;16.61;53.62
9893;BME280;4985;49.092;8.542;2023-03-22T10:24:28;98971.50;;;16.62;53.64
9893;BME280;4985;49.092;8.542;2023-03-22T10:26:56;98966.78;;;16.64;53.63
9893;BME280;4985;49.092;8.542;2023-03-22T10:29:28;98970.47;;;16.63;53.63
9893;BME280;4985;49.092;8.542;2023-03-22T10:32:10;98969.66;;;16.62;53.63
9893;BME280;4985;49.092;8.542;2023-03-22T10:34:38;98973.97;;;16.63;53.65
9893;BME280;4985;49.092;8.542;2023-03-22T10:37:05;98963.31;;;16.63;53.64
9893;BME280;4985;49.092;8.542;2023-03-22T10:39:35;98955.97;;;16.65;53.63
9893;BME280;4985;49.092;8.542;2023-03-22T10:42:07;98957.63;;;16.66;53.62
9893;BME280;4985;49.092;8.542;2023-03-22T10:44:44;98954.97;;;16.66;53.63
9893;BME280;4985;49.092;8.542;2023-03-22T10:47:14;98952.91;;;16.62;53.61
9893;BME280;4985;49.092;8.542;2023-03-22T10:49:44;98943.28;;;16.67;53.61
9893;BME280;4985;49.092;8.542;2023-03-22T10:52:22;98944.13;;;16.68;53.60
9893;BME280;4985;49.092;8.542;2023-03-22T10:54:51;98944.97;;;16.68;53.62
9893;BME280;4985;49.092;8.542;2023-03-22T10:57:20;98948.59;;;16.67;53.63
9893;BME280;4985;49.092;8.542;2023-03-22T10:59:49;98950.28;;;16.68;53.64
9893;BME280;4985;49.092;8.542;2023-03-22T11:02:18;98944.75;;;16.70;53.63
9893;BME280;4985;49.092;8.542;2023-03-22T11:04:49;98924.28;;;16.70;53.63
9893;BME280;4985;49.092;8.542;2023-03-22T11:07:30;98930.44;;;16.71;53.62
9893;BME280;4985;49.092;8.542;2023-03-22T11:10:26;98929.59;;;16.70;53.61
9893;BME280;4985;49.092;8.542;2023-03-22T11:12:56;98926.72;;;16.72;53.61
9893;BME280;4985;49.092;8.542;2023-03-22T11:15:38;98928.56;;;16.71;53.62
9893;BME280;4985;49.092;8.542;2023-03-22T11:18:07;98927.56;;;16.72;53.62
9893;BME280;4985;49.092;8.542;2023-03-22T11:20:38;98917.72;;;16.73;53.60
9893;BME280;4985;49.092;8.542;2023-03-22T11:23:06;98914.25;;;16.72;53.60
9893;BME280;4985;49.092;8.542;2023-03-22T11:25:43;98925.72;;;16.73;53.61
9893;BME280;4985;49.092;8.542;2023-03-22T11:28:16;98917.72;;;16.73;53.64
9893;BME280;4985;49.092;8.542;2023-03-22T11:30:59;98911.59;;;16.72;53.65
9893;BME280;4985;49.092;8.542;2023-03-22T11:33:27;98918.53;;;16.73;53.65
9893;BME280;4985;49.092;8.542;2023-03-22T11:35:55;98913.22;;;16.73;53.65
9893;BME280;4985;49.092;8.542;2023-03-22T11:38:24;98914.03;;;16.74;53.65
9893;BME280;4985;49.092;8.542;2023-03-22T11:40:55;98911.16;;;16.75;53.67
9893;BME280;4985;49.092;8.542;2023-03-22T11:43:26;98915.50;;;16.76;53.66
9893;BME280;4985;49.092;8.542;2023-03-22T11:45:56;98917.13;;;16.77;53.65
9893;BME280;4985;49.092;8.542;2023-03-22T11:48:25;98908.31;;;16.77;53.64
9893;BME280;4985;49.092;8.542;2023-03-22T11:50:54;98913.66;;;16.77;53.65
9893;BME280;4985;49.092;8.542;2023-03-22T11:53:25;98903.81;;;16.77;53.66
9893;BME280;4985;49.092;8.542;2023-03-22T11:55:54;98908.72;;;16.74;53.65
9893;BME280;4985;49.092;8.542;2023-03-22T11:58:25;98905.44;;;16.78;53.65
9893;BME280;4985;49.092;8.542;2023-03-22T12:00:53;98900.12;;;16.78;53.66
9893;BME280;4985;49.092;8.542;2023-03-22T12:03:25;98896.44;;;16.79;53.65
9893;BME280;4985;49.092;8.542;2023-03-22T12:05:53;98898.06;;;16.80;53.65
9893;BME280;4985;49.092;8.542;2023-03-22T12:08:26;98886.63;;;16.80;53.66
9893;BME280;4985;49.092;8.542;2023-03-22T12:10:57;98884.78;;;16.80;53.65
9893;BME280;4985;49.092;8.542;2023-03-22T12:13:32;98878.44;;;16.81;53.64
9893;BME280;4985;49.092;8.542;2023-03-22T12:16:04;98883.75;;;16.81;53.64
9893;BME280;4985;49.092;8.542;2023-03-22T12:18:37;98879.25;;;16.82;53.63
9893;BME280;4985;49.092;8.542;2023-03-22T12:21:08;98887.00;;;16.83;53.62
9893;BME280;4985;49.092;8.542;2023-03-22T12:23:35;98877.19;;;16.84;53.62
9893;BME280;4985;49.092;8.542;2023-03-22T12:26:04;98870.03;;;16.84;53.58
9893;BME280;4985;49.092;8.542;2023-03-22T12:28:34;98866.78;;;16.82;53.60
9893;BME280;4985;49.092;8.542;2023-03-22T12:31:05;98867.38;;;16.84;53.58
9893;BME280;4985;49.092;8.542;2023-03-22T12:33:42;98875.13;;;16.86;53.60
9893;BME280;4985;49.092;8.542;2023-03-22T12:36:14;98863.69;;;16.85;53.60
9893;BME280;4985;49.092;8.542;2023-03-22T12:38:45;98860.00;;;16.86;53.57
9893;BME280;4985;49.092;8.542;2023-03-22T12:41:15;98861.66;;;16.87;53.57
9893;BME280;4985;49.092;8.542;2023-03-22T12:43:47;98865.94;;;16.88;53.58
9893;BME280;4985;49.092;8.542;2023-03-22T12:46:19;98863.28;;;16.88;53.56
9893;BME280;4985;49.092;8.542;2023-03-22T12:48:49;98857.75;;;16.90;53.54
9893;BME280;4985;49.092;8.542;2023-03-22T12:51:17;98853.47;;;16.89;53.54
9893;BME280;4985;49.092;8.542;2023-03-22T12:53:46;98847.91;;;16.91;53.55
9893;BME280;4985;49.092;8.542;2023-03-22T12:56:15;98844.22;;;16.92;53.54
9893;BME280;4985;49.092;8.542;2023-03-22T12:58:46;98828.50;;;16.90;53.52
9893;BME280;4985;49.092;8.542;2023-03-22T13:01:21;98840.75;;;16.91;53.53
9893;BME280;4985;49.092;8.542;2023-03-22T13:03:52;98839.94;;;16.91;53.54
9893;BME280;4985;49.092;8.542;2023-03-22T13:06:31;98830.34;;;16.90;53.56
9893;BME280;4985;49.092;8.542;2023-03-22T13:09:13;98837.88;;;16.93;53.56
9893;BME280;4985;49.092;8.542;2023-03-22T13:11:42;98822.75;;;16.93;53.57
9893;BME280;4985;49.092;8.542;2023-03-22T13:14:11;98825.19;;;16.95;53.56
9893;BME280;4985;49.092;8.542;2023-03-22T13:16:47;98822.53;;;16.95;53.53
9893;BME280;4985;49.092;8.542;2023-03-22T13:19:35;98820.69;;;16.95;53.54
9893;BME280;4985;49.092;8.542;2023-03-22T13:22:16;98812.69;;;16.95;53.54
9893;BME280;4985;49.092;8.542;2023-03-22T13:25:00;98810.84;;;16.96;53.55
9893;BME280;4985;49.092;8.542;2023-03-22T13:27:37;98816.19;;;16.96;53.57
9893;BME280;4985;49.092;8.542;2023-03-22T13:30:14;98802.28;;;16.94;53.56
9893;BME280;4985;49.092;8.542;2023-03-22T13:32:49;98793.47;;;17.00;53.53
9893;BME280;4985;49.092;8.542;2023-03-22T13:35:24;98797.75;;;17.01;53.51
9893;BME280;4985;49.092;8.542;2023-03-22T13:37:52;98787.91;;;17.01;53.48
9893;BME280;4985;49.092;8.542;2023-03-22T13:40:32;98786.06;;;17.02;53.48
9893;BME280;4985;49.092;8.542;2023-03-22T13:43:12;98790.38;;;17.03;53.48